Time;durP1;ratioP1;P1;durP2;ratioP2;P2;SDS_P1;SDS_P2;PMS_P1;PMS_P2;Temp;Humidity;BMP_temperature;BMP_pressure;BME280_temperature;BME280_humidity;BME280_pressure;Samples;Min_cycle;Max_cycle;Signal;HPM_P1;HPM_P2
2022/03/11 00:01:09;;;;;;;5.45;4.95;;;;;;;;;;4856492;29;20546;-86
2022/03/11 00:03:38;;;;;;;4.85;4.20;;;;;;;;;;4856276;29;20064;-87
2022/03/11 00:06:08;;;;;;;5.25;4.85;;;;;;;;;;4855358;29;20046;-86
2022/03/11 00:08:40;;;;;;;2.85;2.65;;;;;;;;;;4855572;29;20056;-88
2022/03/11 00:11:08;;;;;;;5.05;3.92;;;;;;;;;;4839558;29;20065;-87
2022/03/11 00:13:35;;;;;;;3.28;2.97;;;;;;;;;;4839680;29;20060;-88
2022/03/11 00:16:04;;;;;;;4.32;3.15;;;;;;;;;;4854922;29;20050;-86
2022/03/11 00:18:32;;;;;;;5.57;3.20;;;;;;;;;;4856463;29;20045;-87
2022/03/11 00:21:00;;;;;;;6.20;5.63;;;;;;;;;;4855247;29;20050;-88
2022/03/11 00:23:31;;;;;;;6.07;3.80;;;;;;;;;;4824166;29;20829;-87
2022/03/11 00:25:59;;;;;;;5.93;5.43;;;;;;;;;;4854265;29;20503;-83
2022/03/11 00:28:27;;;;;;;5.63;3.80;;;;;;;;;;4822941;29;20053;-89
2022/03/11 00:30:55;;;;;;;4.43;4.00;;;;;;;;;;4840009;29;20054;-89
2022/03/11 00:33:23;;;;;;;5.45;3.47;;;;;;;;;;4839173;29;20050;-87
2022/03/11 00:35:51;;;;;;;3.67;3.28;;;;;;;;;;4837854;29;20057;-88
2022/03/11 00:38:19;;;;;;;5.53;3.55;;;;;;;;;;4822048;29;20053;-88
2022/03/11 00:40:47;;;;;;;4.00;3.00;;;;;;;;;;4806554;29;20565;-87
2022/03/11 00:43:16;;;;;;;3.42;2.38;;;;;;;;;;4822046;29;20510;-87
2022/03/11 00:45:44;;;;;;;7.70;6.15;;;;;;;;;;4837013;29;20061;-87
2022/03/11 00:48:12;;;;;;;5.00;3.80;;;;;;;;;;4833205;29;20049;-87
2022/03/11 00:50:40;;;;;;;9.43;6.10;;;;;;;;;;4825211;29;20058;-85
2022/03/11 00:53:08;;;;;;;4.18;3.20;;;;;;;;;;4837069;29;20064;-87
2022/03/11 00:55:37;;;;;;;7.57;5.22;;;;;;;;;;4839152;29;20065;-87
2022/03/11 00:58:05;;;;;;;8.25;4.13;;;;;;;;;;4856838;29;20065;-87
2022/03/11 01:00:33;;;;;;;3.63;2.80;;;;;;;;;;4825114;29;20419;-86
2022/03/11 01:03:02;;;;;;;6.93;3.30;;;;;;;;;;4825674;29;20495;-86
2022/03/11 01:05:30;;;;;;;6.63;5.50;;;;;;;;;;4824714;29;20088;-88
2022/03/11 01:08:00;;;;;;;9.57;4.07;;;;;;;;;;4824087;29;20057;-88
2022/03/11 01:10:28;;;;;;;7.93;3.90;;;;;;;;;;4856854;29;20073;-87
2022/03/11 01:12:56;;;;;;;3.50;3.13;;;;;;;;;;4840301;29;20060;-87
2022/03/11 01:15:28;;;;;;;4.38;2.97;;;;;;;;;;4857504;29;20065;-86
2022/03/11 01:17:57;;;;;;;7.22;4.50;;;;;;;;;;4839598;29;20064;-88
2022/03/11 01:20:25;;;;;;;9.30;4.78;;;;;;;;;;4839500;29;20066;-88
2022/03/11 01:22:53;;;;;;;3.83;3.45;;;;;;;;;;4825345;29;20072;-86
2022/03/11 01:25:37;;;;;;;4.95;4.47;;;;;;;;;;4855884;29;20049;-87
2022/03/11 01:28:56;;;;;;;4.10;3.70;;;;;;;;;;4840898;29;20060;-88
2022/03/11 01:32:13;;;;;;;6.72;4.80;;;;;;;;;;4850951;29;20685;-83
2022/03/11 01:35:28;;;;;;;7.72;5.75;;;;;;;;;;4831650;29;20366;-86
2022/03/11 01:38:38;;;;;;;4.25;3.90;;;;;;;;;;4824698;29;20684;-86
2022/03/11 01:41:43;;;;;;;4.32;4.03;;;;;;;;;;4823439;29;20056;-87
2022/03/11 01:44:11;;;;;;;3.47;3.17;;;;;;;;;;4824307;29;20056;-88
2022/03/11 01:46:39;;;;;;;3.75;2.70;;;;;;;;;;4839894;29;20880;-87
2022/03/11 01:49:09;;;;;;;5.35;3.53;;;;;;;;;;4853901;29;20042;-87
2022/03/11 01:51:38;;;;;;;4.22;3.90;;;;;;;;;;4839614;29;20479;-88
2022/03/11 01:54:06;;;;;;;4.05;3.70;;;;;;;;;;4839242;29;20042;-88
2022/03/11 01:56:49;;;;;;;3.92;3.60;;;;;;;;;;4838770;29;20057;-87
2022/03/11 02:00:04;;;;;;;3.40;2.03;;;;;;;;;;4838139;29;20057;-89
2022/03/11 02:03:24;;;;;;;6.60;5.45;;;;;;;;;;4841064;29;20049;-86
2022/03/11 02:06:39;;;;;;;5.05;4.63;;;;;;;;;;4818730;29;20060;-84
2022/03/11 02:09:41;;;;;;;7.25;4.78;;;;;;;;;;4823560;29;20050;-88
2022/03/11 02:12:10;;;;;;;6.50;4.45;;;;;;;;;;4838048;29;20116;-88
2022/03/11 02:14:39;;;;;;;5.60;4.88;;;;;;;;;;4839409;29;20057;-88
2022/03/11 02:17:09;;;;;;;7.28;6.68;;;;;;;;;;4823325;29;20054;-84
2022/03/11 02:19:39;;;;;;;3.55;3.17;;;;;;;;;;4820190;29;20057;-87
2022/03/11 02:22:07;;;;;;;7.40;5.20;;;;;;;;;;4804853;29;20060;-87
2022/03/11 02:24:35;;;;;;;4.32;3.30;;;;;;;;;;4804750;29;20512;-87
2022/03/11 02:27:03;;;;;;;8.18;5.30;;;;;;;;;;4820840;29;20054;-87
2022/03/11 02:29:31;;;;;;;4.45;4.00;;;;;;;;;;4801754;29;20054;-82
2022/03/11 02:31:59;;;;;;;5.40;4.88;;;;;;;;;;4817071;29;20595;-87
2022/03/11 02:34:28;;;;;;;11.05;4.47;;;;;;;;;;4787700;29;20763;-86
2022/03/11 02:36:56;;;;;;;5.38;4.50;;;;;;;;;;4801685;29;20501;-87
2022/03/11 02:39:26;;;;;;;4.18;3.90;;;;;;;;;;4802604;29;20070;-86
2022/03/11 02:41:54;;;;;;;6.03;5.32;;;;;;;;;;4816639;29;20061;-87
2022/03/11 02:44:22;;;;;;;11.18;6.68;;;;;;;;;;4801880;29;20061;-86
2022/03/11 02:46:51;;;;;;;6.35;4.47;;;;;;;;;;4822945;29;20841;-86
2022/03/11 02:49:19;;;;;;;8.68;5.53;;;;;;;;;;4834804;29;20046;-86
2022/03/11 02:51:47;;;;;;;3.47;3.17;;;;;;;;;;4836211;29;20050;-85
2022/03/11 02:54:15;;;;;;;6.90;4.80;;;;;;;;;;4835600;29;20061;-86
2022/03/11 02:56:43;;;;;;;4.13;3.50;;;;;;;;;;4833136;29;20050;-86
2022/03/11 02:59:11;;;;;;;9.68;5.20;;;;;;;;;;4817196;29;20050;-87
2022/03/11 03:01:39;;;;;;;3.80;2.15;;;;;;;;;;4818129;29;20051;-87
2022/03/11 03:04:08;;;;;;;6.72;4.97;;;;;;;;;;4816704;29;20053;-86
2022/03/11 03:06:40;;;;;;;6.43;3.38;;;;;;;;;;4818340;29;20066;-88
2022/03/11 03:09:12;;;;;;;9.48;5.05;;;;;;;;;;4820864;29;20048;-88
2022/03/11 03:11:40;;;;;;;6.53;5.47;;;;;;;;;;4817299;29;20055;-87
2022/03/11 03:14:08;;;;;;;5.60;5.05;;;;;;;;;;4787650;29;20046;-88
2022/03/11 03:16:36;;;;;;;8.50;6.03;;;;;;;;;;4816845;29;20058;-88
2022/03/11 03:19:04;;;;;;;6.97;6.28;;;;;;;;;;4816909;29;20050;-88
2022/03/11 03:21:35;;;;;;;4.25;3.97;;;;;;;;;;4818778;29;20057;-89
2022/03/11 03:24:06;;;;;;;12.98;5.45;;;;;;;;;;4802056;29;20054;-88
2022/03/11 03:26:37;;;;;;;4.32;3.90;;;;;;;;;;4802006;29;20061;-89
2022/03/11 03:29:05;;;;;;;10.30;7.70;;;;;;;;;;4821230;29;20045;-88
2022/03/11 03:31:33;;;;;;;4.13;3.65;;;;;;;;;;4820512;29;20062;-88
2022/03/11 03:34:01;;;;;;;5.28;4.75;;;;;;;;;;4836469;29;20417;-88
2022/03/11 03:36:29;;;;;;;4.88;3.75;;;;;;;;;;4836028;29;20049;-88
2022/03/11 03:38:57;;;;;;;6.10;5.28;;;;;;;;;;4820366;29;20385;-87
2022/03/11 03:41:25;;;;;;;7.45;7.05;;;;;;;;;;4819441;29;20054;-87
2022/03/11 03:43:53;;;;;;;4.65;3.90;;;;;;;;;;4820362;29;20053;-88
2022/03/11 03:46:53;;;;;;;5.80;4.80;;;;;;;;;;4826969;29;20060;-88
2022/03/11 03:49:22;;;;;;;3.63;3.30;;;;;;;;;;4814426;29;20079;-88
2022/03/11 03:51:54;;;;;;;4.28;3.50;;;;;;;;;;4805324;29;20046;-87
2022/03/11 03:54:25;;;;;;;9.25;7.15;;;;;;;;;;4820361;29;20054;-87
2022/03/11 03:56:53;;;;;;;7.80;5.43;;;;;;;;;;4819464;29;20050;-88
2022/03/11 03:59:24;;;;;;;9.65;7.50;;;;;;;;;;4851358;29;20488;-87
2022/03/11 04:01:52;;;;;;;6.75;5.40;;;;;;;;;;4822396;29;20049;-87
2022/03/11 04:04:20;;;;;;;12.80;6.10;;;;;;;;;;4854619;29;20511;-87
2022/03/11 04:06:48;;;;;;;4.35;3.97;;;;;;;;;;4838298;29;20049;-88
2022/03/11 04:09:16;;;;;;;8.60;4.15;;;;;;;;;;4837941;29;20050;-87
2022/03/11 04:11:44;;;;;;;12.95;7.88;;;;;;;;;;4838273;29;20088;-88
2022/03/11 04:14:12;;;;;;;5.88;4.00;;;;;;;;;;4854022;29;20053;-88
2022/03/11 04:16:41;;;;;;;11.02;8.15;;;;;;;;;;4854499;29;20056;-87
2022/03/11 04:19:09;;;;;;;5.97;4.75;;;;;;;;;;4834874;29;20060;-87
2022/03/11 04:21:37;;;;;;;7.55;7.05;;;;;;;;;;4819666;29;20046;-87
2022/03/11 04:24:14;;;;;;;7.68;6.82;;;;;;;;;;4819572;29;20053;-86
2022/03/11 04:26:43;;;;;;;7.07;6.07;;;;;;;;;;4819575;29;20053;-87
2022/03/11 04:29:12;;;;;;;8.23;4.88;;;;;;;;;;4819417;29;20050;-87
2022/03/11 04:31:41;;;;;;;8.80;6.50;;;;;;;;;;4823529;29;20056;-88
2022/03/11 04:34:09;;;;;;;11.43;5.00;;;;;;;;;;4822831;29;20061;-88
2022/03/11 04:36:38;;;;;;;8.50;6.60;;;;;;;;;;4822675;29;20054;-87
2022/03/11 04:39:07;;;;;;;8.13;5.00;;;;;;;;;;4808135;29;20053;-87
2022/03/11 04:41:36;;;;;;;6.18;5.40;;;;;;;;;;4838854;29;20505;-87
2022/03/11 04:44:04;;;;;;;7.00;6.28;;;;;;;;;;4807460;29;20054;-87
2022/03/11 04:46:32;;;;;;;9.10;5.53;;;;;;;;;;4841504;29;20054;-87
2022/03/11 04:49:01;;;;;;;7.50;5.07;;;;;;;;;;4855877;29;20046;-87
2022/03/11 04:51:29;;;;;;;7.20;5.68;;;;;;;;;;4841236;29;20057;-88
2022/03/11 04:53:58;;;;;;;5.35;4.85;;;;;;;;;;4857411;29;20045;-87
2022/03/11 04:56:27;;;;;;;6.63;5.97;;;;;;;;;;4810221;29;20053;-87
2022/03/11 04:58:55;;;;;;;9.15;6.28;;;;;;;;;;4840932;29;20056;-87
2022/03/11 05:01:24;;;;;;;12.98;5.32;;;;;;;;;;4840752;29;20045;-88
2022/03/11 05:03:52;;;;;;;12.00;7.30;;;;;;;;;;4840649;29;20049;-88
2022/03/11 05:06:21;;;;;;;3.15;2.95;;;;;;;;;;4825938;29;20061;-88
2022/03/11 05:08:48;;;;;;;5.40;5.00;;;;;;;;;;4856763;29;20057;-88
2022/03/11 05:11:16;;;;;;;5.55;5.10;;;;;;;;;;4824891;29;20054;-87
2022/03/11 05:13:45;;;;;;;13.32;6.40;;;;;;;;;;4857022;29;20045;-87
2022/03/11 05:16:13;;;;;;;8.60;5.25;;;;;;;;;;4840517;29;20496;-87
2022/03/11 05:18:47;;;;;;;4.07;3.65;;;;;;;;;;4841106;29;20053;-88
2022/03/11 05:21:15;;;;;;;8.38;6.43;;;;;;;;;;4840544;29;20056;-88
2022/03/11 05:23:43;;;;;;;12.57;6.65;;;;;;;;;;4840655;29;20049;-87
2022/03/11 05:26:24;;;;;;;4.47;3.72;;;;;;;;;;4838898;29;20545;-87
2022/03/11 05:28:53;;;;;;;9.13;8.10;;;;;;;;;;4822268;29;20429;-88
2022/03/11 05:31:22;;;;;;;6.97;5.18;;;;;;;;;;4792309;29;20050;-87
2022/03/11 05:33:50;;;;;;;10.30;5.07;;;;;;;;;;4838211;29;20049;-87
2022/03/11 05:36:18;;;;;;;4.40;4.10;;;;;;;;;;4806154;29;20057;-86
2022/03/11 05:38:46;;;;;;;9.20;5.95;;;;;;;;;;4806881;29;20065;-86
2022/03/11 05:41:14;;;;;;;6.57;4.47;;;;;;;;;;4847314;29;20052;-86
2022/03/11 05:43:42;;;;;;;4.22;4.03;;;;;;;;;;4856981;29;20065;-86
2022/03/11 05:46:11;;;;;;;4.57;4.25;;;;;;;;;;4820707;29;20061;-86
2022/03/11 05:48:39;;;;;;;6.75;5.90;;;;;;;;;;4837845;29;20436;-86
2022/03/11 05:51:07;;;;;;;9.35;8.40;;;;;;;;;;4806845;29;20678;-86
2022/03/11 05:53:35;;;;;;;9.73;8.68;;;;;;;;;;4812959;29;20050;-86
2022/03/11 05:56:03;;;;;;;7.22;5.20;;;;;;;;;;4851252;29;20053;-86
2022/03/11 05:58:31;;;;;;;6.43;5.53;;;;;;;;;;4856024;29;20061;-81
2022/03/11 06:00:59;;;;;;;3.58;3.38;;;;;;;;;;4840358;29;20806;-84
2022/03/11 06:03:28;;;;;;;5.90;4.70;;;;;;;;;;4834217;29;20053;-80
2022/03/11 06:05:56;;;;;;;9.57;6.60;;;;;;;;;;4816284;29;20500;-82
2022/03/11 06:08:25;;;;;;;9.40;6.03;;;;;;;;;;4836586;29;19934;-81
2022/03/11 06:10:53;;;;;;;8.15;5.75;;;;;;;;;;4821857;29;20045;-81
2022/03/11 06:13:22;;;;;;;14.63;5.70;;;;;;;;;;4844107;29;20563;-81
2022/03/11 06:15:50;;;;;;;9.80;8.80;;;;;;;;;;4842407;29;20056;-82
2022/03/11 06:18:18;;;;;;;8.98;8.15;;;;;;;;;;4820949;29;20053;-84
2022/03/11 06:20:46;;;;;;;14.13;7.70;;;;;;;;;;4820569;29;20509;-84
2022/03/11 06:23:14;;;;;;;11.18;8.95;;;;;;;;;;4838434;29;20065;-81
2022/03/11 06:25:42;;;;;;;8.48;5.72;;;;;;;;;;4842652;29;20054;-81
2022/03/11 06:28:10;;;;;;;6.47;4.88;;;;;;;;;;4855603;29;20056;-88
2022/03/11 06:30:42;;;;;;;8.03;6.80;;;;;;;;;;4839804;29;20054;-85
2022/03/11 06:33:10;;;;;;;12.50;8.02;;;;;;;;;;4820347;29;20416;-83
2022/03/11 06:35:38;;;;;;;12.15;10.68;;;;;;;;;;4819622;29;20061;-82
2022/03/11 06:38:06;;;;;;;18.80;14.43;;;;;;;;;;4802263;29;20058;-86
2022/03/11 06:40:34;;;;;;;10.60;7.30;;;;;;;;;;4816286;29;20050;-87
2022/03/11 06:43:03;;;;;;;10.02;7.85;;;;;;;;;;4821698;29;20050;-87
2022/03/11 06:45:31;;;;;;;6.20;4.18;;;;;;;;;;4835967;29;20515;-88
2022/03/11 06:47:59;;;;;;;10.63;6.70;;;;;;;;;;4832075;29;20054;-88
2022/03/11 06:50:27;;;;;;;8.43;7.72;;;;;;;;;;4847509;29;20049;-89
2022/03/11 06:52:56;;;;;;;10.48;7.53;;;;;;;;;;4853948;29;20041;-88
2022/03/11 06:55:24;;;;;;;8.57;4.95;;;;;;;;;;4847284;29;20426;-87
2022/03/11 06:57:53;;;;;;;9.27;8.43;;;;;;;;;;4864833;29;20056;-88
2022/03/11 07:00:21;;;;;;;9.52;6.80;;;;;;;;;;4845601;29;20510;-90
2022/03/11 07:02:49;;;;;;;10.40;5.93;;;;;;;;;;4866556;29;20053;-87
2022/03/11 07:05:18;;;;;;;10.52;7.13;;;;;;;;;;4853871;29;20041;-90
2022/03/11 07:07:46;;;;;;;6.20;5.70;;;;;;;;;;4815618;29;20059;-87
2022/03/11 07:10:17;;;;;;;9.07;8.10;;;;;;;;;;4859953;29;20049;-87
2022/03/11 07:12:45;;;;;;;10.38;6.95;;;;;;;;;;4863225;29;20287;-89
2022/03/11 07:15:14;;;;;;;4.78;4.45;;;;;;;;;;4866183;29;20487;-87
2022/03/11 07:17:43;;;;;;;8.38;6.63;;;;;;;;;;4864729;29;20053;-88
2022/03/11 07:20:11;;;;;;;8.02;6.65;;;;;;;;;;4865522;29;20053;-88
2022/03/11 07:26:58;;;;;;;7.43;4.82;;;;;;;;;;4769355;29;20059;-86
2022/03/11 07:29:26;;;;;;;14.85;8.50;;;;;;;;;;4771582;29;20050;-86
2022/03/11 07:31:54;;;;;;;10.73;8.23;;;;;;;;;;4788982;29;20050;-88
2022/03/11 07:34:23;;;;;;;11.52;7.45;;;;;;;;;;4790782;29;20059;-88
2022/03/11 07:36:52;;;;;;;7.85;6.32;;;;;;;;;;4796330;29;20047;-87
2022/03/11 07:39:21;;;;;;;8.38;6.70;;;;;;;;;;4836448;29;20812;-87
2022/03/11 07:41:49;;;;;;;12.13;6.60;;;;;;;;;;4818067;29;20045;-85
2022/03/11 07:44:20;;;;;;;13.07;9.35;;;;;;;;;;4846203;29;20053;-86
2022/03/11 07:46:57;;;;;;;7.35;6.15;;;;;;;;;;4845073;29;20046;-81
2022/03/11 07:49:27;;;;;;;9.02;5.80;;;;;;;;;;4861845;29;20571;-82
2022/03/11 07:51:55;;;;;;;8.38;6.68;;;;;;;;;;4868369;29;20053;-81
2022/03/11 07:54:23;;;;;;;16.27;9.38;;;;;;;;;;4834109;29;20049;-81
2022/03/11 07:56:52;;;;;;;14.05;8.60;;;;;;;;;;4852870;29;20049;-81
2022/03/11 07:59:20;;;;;;;8.35;6.97;;;;;;;;;;4837993;29;20061;-81
2022/03/11 08:01:49;;;;;;;9.63;7.68;;;;;;;;;;4822496;29;20602;-80
2022/03/11 08:04:18;;;;;;;15.20;11.55;;;;;;;;;;4854502;29;20052;-80
2022/03/11 08:06:47;;;;;;;9.55;7.78;;;;;;;;;;4858049;29;20048;-79
2022/03/11 08:09:15;;;;;;;11.30;7.93;;;;;;;;;;4857953;29;20533;-85
2022/03/11 08:11:43;;;;;;;18.15;7.63;;;;;;;;;;4841366;29;20045;-84
2022/03/11 08:14:13;;;;;;;12.00;7.65;;;;;;;;;;4857256;29;20050;-83
2022/03/11 08:16:41;;;;;;;14.47;6.53;;;;;;;;;;4840745;29;20415;-81
2022/03/11 08:19:09;;;;;;;8.68;7.32;;;;;;;;;;4857843;29;20309;-82
2022/03/11 08:21:49;;;;;;;8.48;7.85;;;;;;;;;;4857636;29;20056;-83
2022/03/11 08:24:17;;;;;;;8.77;6.13;;;;;;;;;;4857776;29;20053;-83
2022/03/11 08:26:45;;;;;;;7.07;6.38;;;;;;;;;;4841353;29;20069;-84
2022/03/11 08:29:13;;;;;;;9.27;6.80;;;;;;;;;;4856816;29;20060;-83
2022/03/11 08:31:46;;;;;;;15.68;8.68;;;;;;;;;;4857547;29;20072;-83
2022/03/11 08:34:15;;;;;;;11.80;8.23;;;;;;;;;;4858099;29;20686;-83
2022/03/11 08:36:43;;;;;;;12.93;7.15;;;;;;;;;;4857434;29;20495;-84
2022/03/11 08:39:11;;;;;;;9.25;7.55;;;;;;;;;;4857831;29;20065;-82
2022/03/11 08:41:39;;;;;;;12.88;6.90;;;;;;;;;;4856429;29;20822;-85
2022/03/11 08:44:07;;;;;;;7.68;6.70;;;;;;;;;;4857411;29;20052;-83
2022/03/11 08:46:37;;;;;;;10.70;6.43;;;;;;;;;;4841059;29;20057;-83
2022/03/11 08:49:07;;;;;;;9.68;7.70;;;;;;;;;;4842788;29;20781;-84
2022/03/11 08:51:35;;;;;;;10.13;7.22;;;;;;;;;;4876474;29;20053;-85
2022/03/11 08:54:03;;;;;;;15.82;8.13;;;;;;;;;;4844537;29;20445;-83
2022/03/11 08:56:31;;;;;;;9.68;7.18;;;;;;;;;;4828642;29;20062;-84
2022/03/11 08:58:59;;;;;;;15.57;8.13;;;;;;;;;;4839063;29;20049;-81
2022/03/11 09:01:27;;;;;;;9.20;6.03;;;;;;;;;;4843040;29;20053;-82
2022/03/11 09:03:55;;;;;;;10.63;6.88;;;;;;;;;;4843156;29;20041;-81
2022/03/11 09:06:24;;;;;;;9.93;8.10;;;;;;;;;;4840405;29;20439;-81
2022/03/11 09:08:52;;;;;;;13.85;8.23;;;;;;;;;;4845459;29;20058;-81
2022/03/11 09:11:21;;;;;;;10.02;7.18;;;;;;;;;;4831040;29;20057;-82
2022/03/11 09:13:50;;;;;;;10.13;7.88;;;;;;;;;;4847370;29;20064;-80
2022/03/11 09:16:18;;;;;;;9.32;6.97;;;;;;;;;;4838229;29;20678;-80
2022/03/11 09:18:46;;;;;;;9.00;7.85;;;;;;;;;;4839295;29;20054;-81
2022/03/11 09:21:15;;;;;;;11.95;7.32;;;;;;;;;;4839667;29;20567;-82
2022/03/11 09:23:44;;;;;;;13.77;7.15;;;;;;;;;;4857055;29;20053;-82
2022/03/11 09:26:12;;;;;;;10.07;7.57;;;;;;;;;;4851598;29;20427;-82
2022/03/11 09:28:41;;;;;;;11.45;7.22;;;;;;;;;;4803510;29;20387;-79
2022/03/11 09:31:09;;;;;;;12.25;8.27;;;;;;;;;;4821456;29;20073;-81
2022/03/11 09:33:38;;;;;;;16.00;8.57;;;;;;;;;;4820924;29;20053;-81
2022/03/11 09:36:07;;;;;;;12.85;7.00;;;;;;;;;;4836097;29;20073;-81
2022/03/11 09:38:38;;;;;;;12.25;7.15;;;;;;;;;;4834955;29;20057;-81
2022/03/11 09:41:09;;;;;;;12.10;8.20;;;;;;;;;;4834727;29;20050;-80
2022/03/11 09:43:38;;;;;;;5.07;4.60;;;;;;;;;;4819980;29;20500;-81
2022/03/11 09:46:06;;;;;;;6.43;5.82;;;;;;;;;;4835874;29;20046;-81
2022/03/11 09:48:35;;;;;;;7.75;6.05;;;;;;;;;;4852895;29;20052;-80
2022/03/11 09:51:04;;;;;;;16.25;10.40;;;;;;;;;;4838333;29;20053;-82
2022/03/11 09:53:42;;;;;;;17.33;8.50;;;;;;;;;;4854749;29;20045;-81
2022/03/11 09:56:10;;;;;;;9.50;6.97;;;;;;;;;;4820368;29;20045;-81
2022/03/11 09:58:38;;;;;;;12.60;6.07;;;;;;;;;;4837628;29;20056;-82
2022/03/11 10:01:06;;;;;;;14.93;7.47;;;;;;;;;;4837681;29;20045;-80
2022/03/11 10:03:34;;;;;;;14.65;8.20;;;;;;;;;;4837933;29;20076;-81
2022/03/11 10:06:02;;;;;;;9.60;7.88;;;;;;;;;;4837964;29;20416;-80
2022/03/11 10:08:31;;;;;;;12.85;8.57;;;;;;;;;;4821755;29;20065;-81
2022/03/11 10:11:38;;;;;;;8.40;6.13;;;;;;;;;;4836552;29;20053;-81
2022/03/11 10:14:07;;;;;;;11.40;7.80;;;;;;;;;;4781096;29;20054;-80
2022/03/11 10:16:36;;;;;;;6.38;5.72;;;;;;;;;;4814040;29;20207;-80
2022/03/11 10:19:08;;;;;;;13.95;8.50;;;;;;;;;;4818951;29;20077;-79
2022/03/11 10:21:39;;;;;;;12.52;9.32;;;;;;;;;;4829108;29;20420;-79
2022/03/11 10:24:11;;;;;;;9.20;8.15;;;;;;;;;;4854207;29;20771;-82
2022/03/11 10:26:46;;;;;;;11.93;8.75;;;;;;;;;;4852355;29;20054;-81
2022/03/11 10:29:16;;;;;;;11.83;8.13;;;;;;;;;;4853325;29;20068;-80
2022/03/11 10:31:46;;;;;;;13.05;8.57;;;;;;;;;;4837215;29;20582;-79
2022/03/11 10:34:26;;;;;;;15.27;8.38;;;;;;;;;;4835405;29;20483;-80
2022/03/11 10:37:08;;;;;;;8.50;5.90;;;;;;;;;;4821643;29;20068;-79
2022/03/11 10:39:37;;;;;;;10.18;8.57;;;;;;;;;;4853301;29;20061;-83
2022/03/11 10:42:18;;;;;;;8.93;8.13;;;;;;;;;;4820853;29;20068;-86
2022/03/11 10:45:06;;;;;;;10.95;7.68;;;;;;;;;;4821751;29;20054;-85
2022/03/11 10:47:39;;;;;;;11.23;7.75;;;;;;;;;;4843558;29;20061;-85
2022/03/11 10:50:08;;;;;;;10.90;6.30;;;;;;;;;;4843660;29;20496;-84
2022/03/11 10:52:46;;;;;;;8.00;6.50;;;;;;;;;;4836691;29;20045;-84
2022/03/11 10:55:31;;;;;;;13.68;7.38;;;;;;;;;;4835826;29;20582;-83
2022/03/11 10:58:00;;;;;;;9.55;8.43;;;;;;;;;;4852725;29;20060;-87
2022/03/11 11:00:29;;;;;;;15.48;8.90;;;;;;;;;;4836568;29;20060;-85
2022/03/11 11:02:58;;;;;;;13.70;10.65;;;;;;;;;;4822076;29;20065;-84
2022/03/11 11:05:27;;;;;;;21.02;6.57;;;;;;;;;;4820643;29;20522;-85
2022/03/11 11:07:56;;;;;;;5.25;4.78;;;;;;;;;;4820601;29;20480;-86
2022/03/11 11:10:26;;;;;;;11.95;7.65;;;;;;;;;;4852252;29;20498;-86
2022/03/11 11:12:54;;;;;;;11.88;8.35;;;;;;;;;;4836661;29;20088;-84
2022/03/11 11:15:23;;;;;;;12.38;8.30;;;;;;;;;;4853913;29;20064;-85
2022/03/11 11:17:54;;;;;;;7.90;6.65;;;;;;;;;;4820765;29;20053;-86
2022/03/11 11:20:39;;;;;;;10.73;9.25;;;;;;;;;;4821095;29;20495;-85
2022/03/11 11:23:08;;;;;;;12.02;7.43;;;;;;;;;;4853433;29;20053;-85
2022/03/11 11:25:40;;;;;;;7.00;5.20;;;;;;;;;;4819593;29;20068;-86
2022/03/11 11:28:09;;;;;;;9.95;8.38;;;;;;;;;;4820503;29;20250;-86
2022/03/11 11:30:37;;;;;;;12.02;7.60;;;;;;;;;;4821434;29;20072;-83
2022/03/11 11:33:06;;;;;;;11.05;7.93;;;;;;;;;;4852932;29;20049;-82
2022/03/11 11:35:36;;;;;;;9.10;7.70;;;;;;;;;;4852996;29;20054;-84
2022/03/11 11:38:28;;;;;;;13.25;9.00;;;;;;;;;;4820586;29;20068;-85
2022/03/11 11:40:57;;;;;;;29.40;10.30;;;;;;;;;;4851141;29;20049;-86
2022/03/11 11:43:27;;;;;;;13.88;7.70;;;;;;;;;;4821494;29;20302;-85
2022/03/11 11:46:11;;;;;;;9.32;6.68;;;;;;;;;;4850009;29;20404;-84
2022/03/11 11:48:52;;;;;;;14.95;7.22;;;;;;;;;;4851930;29;20045;-83
2022/03/11 11:51:24;;;;;;;9.70;7.13;;;;;;;;;;4835703;29;20053;-83
2022/03/11 11:53:57;;;;;;;12.27;8.85;;;;;;;;;;4837649;29;20057;-86
2022/03/11 11:56:33;;;;;;;9.40;5.53;;;;;;;;;;4853913;29;20061;-87
2022/03/11 11:59:05;;;;;;;13.82;8.18;;;;;;;;;;4838427;29;20064;-83
2022/03/11 12:01:42;;;;;;;9.32;7.85;;;;;;;;;;4848679;29;20058;-87
2022/03/11 12:04:22;;;;;;;9.15;6.50;;;;;;;;;;4842675;29;20057;-84
2022/03/11 12:07:00;;;;;;;11.65;9.68;;;;;;;;;;4833236;29;20080;-83
2022/03/11 12:10:00;;;;;;;12.95;8.18;;;;;;;;;;4836132;29;20053;-84
2022/03/11 12:12:29;;;;;;;6.47;5.95;;;;;;;;;;4838754;29;20441;-87
2022/03/11 12:15:00;;;;;;;13.02;6.38;;;;;;;;;;4836119;29;20061;-82
2022/03/11 12:17:36;;;;;;;10.50;6.57;;;;;;;;;;4836024;29;20057;-85
2022/03/11 12:20:23;;;;;;;12.23;8.85;;;;;;;;;;4835413;29;20053;-85
2022/03/11 12:22:52;;;;;;;16.75;8.27;;;;;;;;;;4836216;29;20901;-81
2022/03/11 12:25:24;;;;;;;7.22;6.22;;;;;;;;;;4851148;29;20057;-83
2022/03/11 12:27:58;;;;;;;9.00;6.18;;;;;;;;;;4835205;29;20057;-80
2022/03/11 12:30:30;;;;;;;14.10;11.43;;;;;;;;;;4836011;29;20423;-79
2022/03/11 12:33:03;;;;;;;9.48;7.65;;;;;;;;;;4852693;29;20049;-80
2022/03/11 12:35:31;;;;;;;11.27;7.20;;;;;;;;;;4834750;29;20046;-80
2022/03/11 12:38:02;;;;;;;8.23;7.18;;;;;;;;;;4823332;29;20049;-79
2022/03/11 12:40:31;;;;;;;9.93;7.38;;;;;;;;;;4851537;29;20053;-82
2022/03/11 12:43:02;;;;;;;12.55;9.88;;;;;;;;;;4836074;29;20057;-88
2022/03/11 12:45:31;;;;;;;10.70;8.15;;;;;;;;;;4835553;29;20061;-81
2022/03/11 12:47:59;;;;;;;11.48;8.50;;;;;;;;;;4835764;29;20349;-82
2022/03/11 12:50:28;;;;;;;15.98;10.35;;;;;;;;;;4831372;29;20919;-83
2022/03/11 12:52:58;;;;;;;10.57;8.07;;;;;;;;;;4844368;29;20046;-85
2022/03/11 12:55:31;;;;;;;6.43;5.43;;;;;;;;;;4843899;29;20057;-84
2022/03/11 12:58:02;;;;;;;13.77;8.85;;;;;;;;;;4858316;29;20056;-84
2022/03/11 13:00:36;;;;;;;15.70;12.65;;;;;;;;;;4839273;29;20053;-83
2022/03/11 13:03:11;;;;;;;25.60;9.10;;;;;;;;;;4854116;29;20061;-85
2022/03/11 13:05:45;;;;;;;16.02;8.65;;;;;;;;;;4854351;29;20045;-84
2022/03/11 13:08:16;;;;;;;8.70;7.25;;;;;;;;;;4832638;29;20042;-81
2022/03/11 13:10:52;;;;;;;11.18;6.90;;;;;;;;;;4858950;29;20065;-82
2022/03/11 13:13:21;;;;;;;10.65;7.65;;;;;;;;;;4843088;29;20049;-83
2022/03/11 13:15:50;;;;;;;10.27;9.00;;;;;;;;;;4843826;29;20057;-83
2022/03/11 13:18:24;;;;;;;7.57;6.88;;;;;;;;;;4832611;29;20818;-82
2022/03/11 13:20:57;;;;;;;14.63;8.63;;;;;;;;;;4839717;29;20049;-84
2022/03/11 13:23:27;;;;;;;10.23;8.70;;;;;;;;;;4855133;29;20395;-82
2022/03/11 13:25:58;;;;;;;14.40;8.88;;;;;;;;;;4857571;29;20056;-83
2022/03/11 13:28:32;;;;;;;8.48;6.53;;;;;;;;;;4851635;29;20509;-82
2022/03/11 13:31:13;;;;;;;11.25;7.60;;;;;;;;;;4856131;29;20057;-82
2022/03/11 13:33:42;;;;;;;10.65;9.48;;;;;;;;;;4840029;29;20050;-84
2022/03/11 13:36:15;;;;;;;13.13;11.05;;;;;;;;;;4835847;29;20053;-84
2022/03/11 13:39:03;;;;;;;19.67;11.45;;;;;;;;;;4835303;29;20389;-83
2022/03/11 13:41:32;;;;;;;12.30;9.20;;;;;;;;;;4842501;29;20049;-83
2022/03/11 13:44:00;;;;;;;9.52;8.05;;;;;;;;;;4841358;29;20065;-83
2022/03/11 13:46:29;;;;;;;7.90;5.90;;;;;;;;;;4853268;29;20054;-84
2022/03/11 13:48:59;;;;;;;12.90;9.30;;;;;;;;;;4854894;29;20049;-83
2022/03/11 13:51:44;;;;;;;29.20;10.40;;;;;;;;;;4855559;29;20050;-84
2022/03/11 13:54:25;;;;;;;10.27;7.57;;;;;;;;;;4857470;29;20054;-89
2022/03/11 13:56:57;;;;;;;12.38;9.13;;;;;;;;;;4822397;29;20049;-85
2022/03/11 13:59:34;;;;;;;7.35;6.65;;;;;;;;;;4831169;29;20054;-80
2022/03/11 14:02:10;;;;;;;9.00;8.18;;;;;;;;;;4849393;29;20045;-86
2022/03/11 14:04:39;;;;;;;9.52;7.35;;;;;;;;;;4834765;29;20074;-79
2022/03/11 14:07:09;;;;;;;6.90;6.20;;;;;;;;;;4854478;29;20050;-79
2022/03/11 14:09:37;;;;;;;10.60;8.63;;;;;;;;;;4829193;29;20508;-82
2022/03/11 14:12:08;;;;;;;12.00;7.55;;;;;;;;;;4837903;29;20049;-81
2022/03/11 14:14:41;;;;;;;11.60;7.97;;;;;;;;;;4819801;29;20044;-80
2022/03/11 14:17:11;;;;;;;10.05;7.80;;;;;;;;;;4840088;29;20812;-79
2022/03/11 14:19:39;;;;;;;11.02;9.98;;;;;;;;;;4855394;29;20053;-81
2022/03/11 14:22:10;;;;;;;10.50;8.93;;;;;;;;;;4853915;29;20060;-80
2022/03/11 14:24:40;;;;;;;;;;;;;;;;;;4837552;29;20061;-80
2022/03/11 14:27:15;;;;;;;12.70;8.93;;;;;;;;;;4842907;29;19935;-80
2022/03/11 14:29:45;;;;;;;10.20;8.32;;;;;;;;;;4867474;29;20053;-80
2022/03/11 14:32:16;;;;;;;15.32;8.07;;;;;;;;;;4856569;29;20045;-79
2022/03/11 14:34:45;;;;;;;9.10;6.97;;;;;;;;;;4856435;29;20053;-80
2022/03/11 14:37:14;;;;;;;12.60;9.75;;;;;;;;;;4855870;29;20056;-80
2022/03/11 14:39:42;;;;;;;8.80;7.20;;;;;;;;;;4855611;29;20047;-80
2022/03/11 14:42:13;;;;;;;11.07;9.80;;;;;;;;;;4855170;29;20054;-79
2022/03/11 14:44:41;;;;;;;9.55;6.53;;;;;;;;;;4856047;29;20844;-79
2022/03/11 14:47:10;;;;;;;13.80;7.93;;;;;;;;;;4842630;29;20041;-79
2022/03/11 14:49:40;;;;;;;7.05;6.47;;;;;;;;;;4861233;29;20054;-80
2022/03/11 14:52:09;;;;;;;7.63;6.72;;;;;;;;;;4850164;29;20053;-79
2022/03/11 14:54:38;;;;;;;8.57;7.40;;;;;;;;;;4842089;29;20053;-79
2022/03/11 14:57:07;;;;;;;20.58;8.73;;;;;;;;;;4837512;29;20056;-79
2022/03/11 14:59:35;;;;;;;9.10;5.95;;;;;;;;;;4835974;29;20053;-78
2022/03/11 15:02:05;;;;;;;14.60;6.68;;;;;;;;;;4851035;29;20049;-81
2022/03/11 15:04:34;;;;;;;11.15;9.90;;;;;;;;;;4846466;29;20049;-78
2022/03/11 15:07:02;;;;;;;7.90;7.07;;;;;;;;;;4853552;29;20408;-78